sensor_id;sensor_type;location;lat;lon;timestamp;temperature;humidity
4828;DHT22;2428;48.732;9.148;2023-05-10T00:01:07;13.40;99.90
4828;DHT22;2428;48.732;9.148;2023-05-10T00:03:33;13.50;99.90
4828;DHT22;2428;48.732;9.148;2023-05-10T00:05:58;13.50;99.90
4828;DHT22;2428;48.732;9.148;2023-05-10T00:08:24;13.40;99.90
4828;DHT22;2428;48.732;9.148;2023-05-10T00:10:50;13.40;99.90
4828;DHT22;2428;48.732;9.148;2023-05-10T00:13:15;13.40;99.90
4828;DHT22;2428;48.732;9.148;2023-05-10T00:15:41;13.30;99.90
4828;DHT22;2428;48.732;9.148;2023-05-10T00:18:07;13.30;99.90
4828;DHT22;2428;48.732;9.148;2023-05-10T00:20:32;13.20;99.90
4828;DHT22;2428;48.732;9.148;2023-05-10T00:22:58;13.10;99.90
4828;DHT22;2428;48.732;9.148;2023-05-10T00:25:24;13.10;99.90
4828;DHT22;2428;48.732;9.148;2023-05-10T00:27:49;13.10;99.90
4828;DHT22;2428;48.732;9.148;2023-05-10T00:30:15;13.00;99.90
4828;DHT22;2428;48.732;9.148;2023-05-10T00:32:41;13.10;99.90
4828;DHT22;2428;48.732;9.148;2023-05-10T00:35:07;13.10;99.90
4828;DHT22;2428;48.732;9.148;2023-05-10T00:37:33;13.10;99.90
4828;DHT22;2428;48.732;9.148;2023-05-10T00:39:59;13.00;99.90
4828;DHT22;2428;48.732;9.148;2023-05-10T00:42:24;13.00;99.90
4828;DHT22;2428;48.732;9.148;2023-05-10T00:44:50;13.00;99.90
4828;DHT22;2428;48.732;9.148;2023-05-10T00:47:16;13.00;99.90
4828;DHT22;2428;48.732;9.148;2023-05-10T00:49:42;12.90;99.90
4828;DHT22;2428;48.732;9.148;2023-05-10T00:52:08;12.90;99.90
4828;DHT22;2428;48.732;9.148;2023-05-10T00:54:34;12.80;99.90
4828;DHT22;2428;48.732;9.148;2023-05-10T00:57:00;12.80;99.90
4828;DHT22;2428;48.732;9.148;2023-05-10T00:59:25;12.80;99.90
4828;DHT22;2428;48.732;9.148;2023-05-10T01:01:52;12.70;99.90
4828;DHT22;2428;48.732;9.148;2023-05-10T01:04:18;12.70;99.90
4828;DHT22;2428;48.732;9.148;2023-05-10T01:06:45;12.70;99.90
4828;DHT22;2428;48.732;9.148;2023-05-10T01:09:11;12.60;99.90
4828;DHT22;2428;48.732;9.148;2023-05-10T01:11:38;12.60;99.90
4828;DHT22;2428;48.732;9.148;2023-05-10T01:14:05;12.60;99.90
4828;DHT22;2428;48.732;9.148;2023-05-10T01:16:34;12.60;99.90
4828;DHT22;2428;48.732;9.148;2023-05-10T01:19:01;12.60;99.90
4828;DHT22;2428;48.732;9.148;2023-05-10T01:36:01;12.50;99.90
4828;DHT22;2428;48.732;9.148;2023-05-10T01:38:49;12.60;99.90
4828;DHT22;2428;48.732;9.148;2023-05-10T01:41:36;12.70;99.90
4828;DHT22;2428;48.732;9.148;2023-05-10T01:46:37;12.60;99.90
4828;DHT22;2428;48.732;9.148;2023-05-10T01:50:10;12.60;99.90
4828;DHT22;2428;48.732;9.148;2023-05-10T01:52:09;12.70;99.90
4828;DHT22;2428;48.732;9.148;2023-05-10T01:54:38;12.70;99.90
4828;DHT22;2428;48.732;9.148;2023-05-10T01:57:08;12.70;99.90
4828;DHT22;2428;48.732;9.148;2023-05-10T01:59:36;12.80;99.90
4828;DHT22;2428;48.732;9.148;2023-05-10T02:02:07;12.70;99.90
4828;DHT22;2428;48.732;9.148;2023-05-10T02:04:37;12.80;99.90
4828;DHT22;2428;48.732;9.148;2023-05-10T02:07:05;12.80;99.90
4828;DHT22;2428;48.732;9.148;2023-05-10T02:09:33;12.90;99.90
4828;DHT22;2428;48.732;9.148;2023-05-10T02:12:01;12.90;99.90
4828;DHT22;2428;48.732;9.148;2023-05-10T02:14:30;12.70;99.90
4828;DHT22;2428;48.732;9.148;2023-05-10T02:16:58;12.70;99.90
4828;DHT22;2428;48.732;9.148;2023-05-10T02:19:25;12.80;99.90
4828;DHT22;2428;48.732;9.148;2023-05-10T02:21:52;12.70;99.90
4828;DHT22;2428;48.732;9.148;2023-05-10T02:24:19;12.60;99.90
4828;DHT22;2428;48.732;9.148;2023-05-10T02:26:46;12.70;99.90
4828;DHT22;2428;48.732;9.148;2023-05-10T02:29:13;12.70;99.90
4828;DHT22;2428;48.732;9.148;2023-05-10T02:31:39;12.70;99.90
4828;DHT22;2428;48.732;9.148;2023-05-10T02:34:08;12.80;99.90
4828;DHT22;2428;48.732;9.148;2023-05-10T02:36:36;12.80;99.90
4828;DHT22;2428;48.732;9.148;2023-05-10T02:39:03;12.70;99.90
4828;DHT22;2428;48.732;9.148;2023-05-10T02:41:31;12.80;99.90
4828;DHT22;2428;48.732;9.148;2023-05-10T02:43:59;12.90;99.90
4828;DHT22;2428;48.732;9.148;2023-05-10T02:46:26;12.90;99.90
4828;DHT22;2428;48.732;9.148;2023-05-10T02:48:52;12.90;99.90
4828;DHT22;2428;48.732;9.148;2023-05-10T02:51:19;12.70;99.90
4828;DHT22;2428;48.732;9.148;2023-05-10T02:53:49;12.60;99.90
4828;DHT22;2428;48.732;9.148;2023-05-10T02:56:36;12.60;99.90
4828;DHT22;2428;48.732;9.148;2023-05-10T02:59:04;12.60;99.90
4828;DHT22;2428;48.732;9.148;2023-05-10T03:01:30;12.60;99.90
4828;DHT22;2428;48.732;9.148;2023-05-10T03:03:55;12.60;99.90
4828;DHT22;2428;48.732;9.148;2023-05-10T03:06:21;12.60;99.90
4828;DHT22;2428;48.732;9.148;2023-05-10T03:08:47;12.60;99.90
4828;DHT22;2428;48.732;9.148;2023-05-10T03:14:22;12.70;99.90
4828;DHT22;2428;48.732;9.148;2023-05-10T03:20:01;12.80;99.90
4828;DHT22;2428;48.732;9.148;2023-05-10T03:22:45;12.80;99.90
4828;DHT22;2428;48.732;9.148;2023-05-10T03:25:13;12.80;99.90
4828;DHT22;2428;48.732;9.148;2023-05-10T03:27:42;12.80;99.90
4828;DHT22;2428;48.732;9.148;2023-05-10T03:30:10;12.80;99.90
4828;DHT22;2428;48.732;9.148;2023-05-10T03:32:37;12.70;99.90
4828;DHT22;2428;48.732;9.148;2023-05-10T03:35:10;12.60;99.90
4828;DHT22;2428;48.732;9.148;2023-05-10T03:37:36;12.50;99.90
4828;DHT22;2428;48.732;9.148;2023-05-10T03:40:02;12.40;99.90
4828;DHT22;2428;48.732;9.148;2023-05-10T03:42:28;12.50;99.90
4828;DHT22;2428;48.732;9.148;2023-05-10T03:44:53;12.40;99.90
4828;DHT22;2428;48.732;9.148;2023-05-10T03:47:19;12.40;99.90
4828;DHT22;2428;48.732;9.148;2023-05-10T03:49:45;12.40;99.90
4828;DHT22;2428;48.732;9.148;2023-05-10T03:52:10;12.40;99.90
4828;DHT22;2428;48.732;9.148;2023-05-10T03:54:36;12.40;99.90
4828;DHT22;2428;48.732;9.148;2023-05-10T03:57:01;12.40;99.90
4828;DHT22;2428;48.732;9.148;2023-05-10T03:59:28;12.40;99.90
4828;DHT22;2428;48.732;9.148;2023-05-10T04:01:54;12.30;99.90
4828;DHT22;2428;48.732;9.148;2023-05-10T04:04:19;12.30;99.90
4828;DHT22;2428;48.732;9.148;2023-05-10T04:06:46;12.30;99.90
4828;DHT22;2428;48.732;9.148;2023-05-10T04:09:12;12.20;99.90
4828;DHT22;2428;48.732;9.148;2023-05-10T04:11:37;12.10;99.90
4828;DHT22;2428;48.732;9.148;2023-05-10T04:14:03;12.10;99.90
4828;DHT22;2428;48.732;9.148;2023-05-10T04:16:28;12.10;99.90
4828;DHT22;2428;48.732;9.148;2023-05-10T04:18:54;12.10;99.90
4828;DHT22;2428;48.732;9.148;2023-05-10T04:21:20;12.10;99.90
4828;DHT22;2428;48.732;9.148;2023-05-10T04:23:45;12.10;99.90
4828;DHT22;2428;48.732;9.148;2023-05-10T04:26:11;12.00;99.90
4828;DHT22;2428;48.732;9.148;2023-05-10T04:28:37;12.00;99.90
4828;DHT22;2428;48.732;9.148;2023-05-10T04:31:03;12.00;99.90
4828;DHT22;2428;48.732;9.148;2023-05-10T04:33:29;12.10;99.90
4828;DHT22;2428;48.732;9.148;2023-05-10T04:35:55;12.10;99.90
4828;DHT22;2428;48.732;9.148;2023-05-10T04:38:20;12.20;99.90
4828;DHT22;2428;48.732;9.148;2023-05-10T04:40:46;12.20;99.90
4828;DHT22;2428;48.732;9.148;2023-05-10T04:43:11;12.10;99.90
4828;DHT22;2428;48.732;9.148;2023-05-10T04:45:37;12.10;99.90
4828;DHT22;2428;48.732;9.148;2023-05-10T04:48:02;12.10;99.90
4828;DHT22;2428;48.732;9.148;2023-05-10T04:50:28;12.10;99.90
4828;DHT22;2428;48.732;9.148;2023-05-10T04:52:54;12.10;99.90
4828;DHT22;2428;48.732;9.148;2023-05-10T04:55:19;12.20;99.90
4828;DHT22;2428;48.732;9.148;2023-05-10T04:57:45;12.10;99.90
4828;DHT22;2428;48.732;9.148;2023-05-10T05:00:11;12.20;99.90
4828;DHT22;2428;48.732;9.148;2023-05-10T05:02:37;12.20;99.90
4828;DHT22;2428;48.732;9.148;2023-05-10T05:05:03;12.20;99.90
4828;DHT22;2428;48.732;9.148;2023-05-10T05:07:29;12.20;99.90
4828;DHT22;2428;48.732;9.148;2023-05-10T05:09:56;12.20;99.90
4828;DHT22;2428;48.732;9.148;2023-05-10T05:12:21;12.20;99.90
4828;DHT22;2428;48.732;9.148;2023-05-10T05:14:47;12.30;99.90
4828;DHT22;2428;48.732;9.148;2023-05-10T05:17:12;12.30;99.90
4828;DHT22;2428;48.732;9.148;2023-05-10T05:19:39;12.30;99.90
4828;DHT22;2428;48.732;9.148;2023-05-10T05:22:06;12.40;99.90
4828;DHT22;2428;48.732;9.148;2023-05-10T05:24:36;12.40;99.90
4828;DHT22;2428;48.732;9.148;2023-05-10T05:27:05;12.50;99.90
4828;DHT22;2428;48.732;9.148;2023-05-10T05:29:31;12.50;99.90
4828;DHT22;2428;48.732;9.148;2023-05-10T05:31:57;12.50;99.90
4828;DHT22;2428;48.732;9.148;2023-05-10T05:34:23;12.60;99.90
4828;DHT22;2428;48.732;9.148;2023-05-10T05:36:49;12.70;99.90
4828;DHT22;2428;48.732;9.148;2023-05-10T05:39:15;12.80;99.90
4828;DHT22;2428;48.732;9.148;2023-05-10T05:41:41;12.90;99.90
4828;DHT22;2428;48.732;9.148;2023-05-10T05:44:06;12.90;99.90
4828;DHT22;2428;48.732;9.148;2023-05-10T05:46:32;12.80;99.90
4828;DHT22;2428;48.732;9.148;2023-05-10T05:48:58;12.80;99.90
4828;DHT22;2428;48.732;9.148;2023-05-10T05:51:23;12.70;99.90
4828;DHT22;2428;48.732;9.148;2023-05-10T05:53:49;12.70;99.90
4828;DHT22;2428;48.732;9.148;2023-05-10T05:56:14;12.80;99.90
4828;DHT22;2428;48.732;9.148;2023-05-10T05:58:40;12.80;99.90
4828;DHT22;2428;48.732;9.148;2023-05-10T06:01:05;12.90;99.90
4828;DHT22;2428;48.732;9.148;2023-05-10T06:03:31;12.90;99.90
4828;DHT22;2428;48.732;9.148;2023-05-10T06:05:57;13.10;99.90
4828;DHT22;2428;48.732;9.148;2023-05-10T06:08:23;13.00;99.90
4828;DHT22;2428;48.732;9.148;2023-05-10T06:10:49;13.10;99.90
4828;DHT22;2428;48.732;9.148;2023-05-10T06:13:14;13.20;99.90
4828;DHT22;2428;48.732;9.148;2023-05-10T06:15:40;13.10;99.90
4828;DHT22;2428;48.732;9.148;2023-05-10T06:18:06;13.10;99.90
4828;DHT22;2428;48.732;9.148;2023-05-10T06:20:31;13.00;99.90
4828;DHT22;2428;48.732;9.148;2023-05-10T06:22:57;13.10;99.90
4828;DHT22;2428;48.732;9.148;2023-05-10T06:25:23;13.00;99.90
4828;DHT22;2428;48.732;9.148;2023-05-10T06:27:49;13.00;99.90
4828;DHT22;2428;48.732;9.148;2023-05-10T06:30:15;12.90;99.90
4828;DHT22;2428;48.732;9.148;2023-05-10T06:32:41;13.00;99.90
4828;DHT22;2428;48.732;9.148;2023-05-10T06:35:07;13.00;99.90
4828;DHT22;2428;48.732;9.148;2023-05-10T06:37:33;13.00;99.90
4828;DHT22;2428;48.732;9.148;2023-05-10T06:39:59;12.90;99.90
4828;DHT22;2428;48.732;9.148;2023-05-10T06:42:25;12.90;99.90
4828;DHT22;2428;48.732;9.148;2023-05-10T06:44:52;12.80;99.90
4828;DHT22;2428;48.732;9.148;2023-05-10T06:47:18;12.90;99.90
4828;DHT22;2428;48.732;9.148;2023-05-10T06:49:44;13.00;99.90
4828;DHT22;2428;48.732;9.148;2023-05-10T06:52:09;13.00;99.90
4828;DHT22;2428;48.732;9.148;2023-05-10T06:54:35;13.00;99.90
4828;DHT22;2428;48.732;9.148;2023-05-10T06:57:00;13.00;99.90
4828;DHT22;2428;48.732;9.148;2023-05-10T06:59:28;13.00;99.90
4828;DHT22;2428;48.732;9.148;2023-05-10T07:01:53;13.00;99.90
4828;DHT22;2428;48.732;9.148;2023-05-10T07:04:19;13.00;99.90
4828;DHT22;2428;48.732;9.148;2023-05-10T07:06:45;12.90;99.90
4828;DHT22;2428;48.732;9.148;2023-05-10T07:09:11;13.00;99.90
4828;DHT22;2428;48.732;9.148;2023-05-10T07:11:37;13.00;99.90
4828;DHT22;2428;48.732;9.148;2023-05-10T07:14:03;13.10;99.90
4828;DHT22;2428;48.732;9.148;2023-05-10T07:16:28;13.10;99.90
4828;DHT22;2428;48.732;9.148;2023-05-10T07:18:54;13.20;99.90
4828;DHT22;2428;48.732;9.148;2023-05-10T07:21:20;13.30;99.90
4828;DHT22;2428;48.732;9.148;2023-05-10T07:23:45;13.40;99.90
4828;DHT22;2428;48.732;9.148;2023-05-10T07:26:11;13.50;99.90
4828;DHT22;2428;48.732;9.148;2023-05-10T07:28:36;13.40;99.90
4828;DHT22;2428;48.732;9.148;2023-05-10T07:31:03;13.50;99.90
4828;DHT22;2428;48.732;9.148;2023-05-10T07:33:29;13.50;99.90
4828;DHT22;2428;48.732;9.148;2023-05-10T07:35:54;13.50;99.90
4828;DHT22;2428;48.732;9.148;2023-05-10T07:38:20;13.60;99.90
4828;DHT22;2428;48.732;9.148;2023-05-10T07:40:45;13.60;99.90
4828;DHT22;2428;48.732;9.148;2023-05-10T07:43:11;13.80;99.90
4828;DHT22;2428;48.732;9.148;2023-05-10T07:45:36;13.70;99.90
4828;DHT22;2428;48.732;9.148;2023-05-10T07:48:02;13.60;99.90
4828;DHT22;2428;48.732;9.148;2023-05-10T07:50:28;13.50;99.90
4828;DHT22;2428;48.732;9.148;2023-05-10T07:52:54;13.50;99.90
4828;DHT22;2428;48.732;9.148;2023-05-10T07:55:19;13.40;99.90
4828;DHT22;2428;48.732;9.148;2023-05-10T07:57:46;13.40;99.90
4828;DHT22;2428;48.732;9.148;2023-05-10T08:00:18;13.50;99.90
4828;DHT22;2428;48.732;9.148;2023-05-10T08:02:44;13.50;99.90
4828;DHT22;2428;48.732;9.148;2023-05-10T08:05:10;13.40;99.90
4828;DHT22;2428;48.732;9.148;2023-05-10T08:07:35;13.50;99.90
4828;DHT22;2428;48.732;9.148;2023-05-10T08:10:02;13.50;99.90
4828;DHT22;2428;48.732;9.148;2023-05-10T08:12:27;13.50;99.90
4828;DHT22;2428;48.732;9.148;2023-05-10T08:14:53;13.50;99.90
4828;DHT22;2428;48.732;9.148;2023-05-10T08:17:19;13.50;99.90
4828;DHT22;2428;48.732;9.148;2023-05-10T08:19:44;13.50;99.90
4828;DHT22;2428;48.732;9.148;2023-05-10T08:22:10;13.50;99.90
4828;DHT22;2428;48.732;9.148;2023-05-10T08:24:35;13.60;99.90
4828;DHT22;2428;48.732;9.148;2023-05-10T08:27:07;13.70;99.90
4828;DHT22;2428;48.732;9.148;2023-05-10T08:29:33;13.80;99.90
4828;DHT22;2428;48.732;9.148;2023-05-10T08:31:58;13.90;99.90
4828;DHT22;2428;48.732;9.148;2023-05-10T08:34:24;14.00;99.90
4828;DHT22;2428;48.732;9.148;2023-05-10T08:36:50;13.90;99.90
4828;DHT22;2428;48.732;9.148;2023-05-10T08:39:15;13.90;99.90
4828;DHT22;2428;48.732;9.148;2023-05-10T08:41:44;13.80;99.90
4828;DHT22;2428;48.732;9.148;2023-05-10T08:44:10;13.90;99.90
4828;DHT22;2428;48.732;9.148;2023-05-10T08:46:37;14.10;99.90
4828;DHT22;2428;48.732;9.148;2023-05-10T08:49:06;14.20;99.90
4828;DHT22;2428;48.732;9.148;2023-05-10T08:51:36;14.10;99.90
4828;DHT22;2428;48.732;9.148;2023-05-10T08:54:05;13.90;99.90
4828;DHT22;2428;48.732;9.148;2023-05-10T08:56:31;13.90;99.90
4828;DHT22;2428;48.732;9.148;2023-05-10T08:58:57;14.00;99.90
4828;DHT22;2428;48.732;9.148;2023-05-10T09:01:23;14.00;99.90
4828;DHT22;2428;48.732;9.148;2023-05-10T09:03:50;14.00;99.90
4828;DHT22;2428;48.732;9.148;2023-05-10T09:06:16;14.00;99.90
4828;DHT22;2428;48.732;9.148;2023-05-10T09:08:42;14.10;99.90
4828;DHT22;2428;48.732;9.148;2023-05-10T09:11:09;14.00;99.90
4828;DHT22;2428;48.732;9.148;2023-05-10T09:13:36;14.10;99.90
4828;DHT22;2428;48.732;9.148;2023-05-10T09:16:02;14.20;99.90
4828;DHT22;2428;48.732;9.148;2023-05-10T09:18:28;14.20;99.90
4828;DHT22;2428;48.732;9.148;2023-05-10T09:20:54;14.10;99.90
4828;DHT22;2428;48.732;9.148;2023-05-10T09:23:20;14.00;99.90
4828;DHT22;2428;48.732;9.148;2023-05-10T09:25:45;13.90;99.90
4828;DHT22;2428;48.732;9.148;2023-05-10T09:28:11;13.90;99.90
4828;DHT22;2428;48.732;9.148;2023-05-10T09:30:37;14.00;99.90
4828;DHT22;2428;48.732;9.148;2023-05-10T09:33:03;13.90;99.90
4828;DHT22;2428;48.732;9.148;2023-05-10T09:35:30;14.00;99.90
4828;DHT22;2428;48.732;9.148;2023-05-10T09:37:59;14.00;99.90
4828;DHT22;2428;48.732;9.148;2023-05-10T09:40:26;14.00;99.90
4828;DHT22;2428;48.732;9.148;2023-05-10T09:45:19;14.10;99.90
4828;DHT22;2428;48.732;9.148;2023-05-10T09:47:45;14.30;99.90
4828;DHT22;2428;48.732;9.148;2023-05-10T09:50:11;14.40;99.90
4828;DHT22;2428;48.732;9.148;2023-05-10T09:55:11;14.50;99.90
4828;DHT22;2428;48.732;9.148;2023-05-10T09:57:37;14.60;99.90
4828;DHT22;2428;48.732;9.148;2023-05-10T10:00:03;14.60;99.90
4828;DHT22;2428;48.732;9.148;2023-05-10T10:02:31;14.60;99.90
4828;DHT22;2428;48.732;9.148;2023-05-10T10:04:57;14.70;99.90
4828;DHT22;2428;48.732;9.148;2023-05-10T10:07:24;14.90;99.90
4828;DHT22;2428;48.732;9.148;2023-05-10T10:09:53;14.90;99.90
4828;DHT22;2428;48.732;9.148;2023-05-10T10:12:19;14.90;99.90
4828;DHT22;2428;48.732;9.148;2023-05-10T10:14:46;14.90;99.90
4828;DHT22;2428;48.732;9.148;2023-05-10T10:17:13;15.10;99.90
4828;DHT22;2428;48.732;9.148;2023-05-10T10:19:39;15.00;99.90
4828;DHT22;2428;48.732;9.148;2023-05-10T10:22:05;14.90;99.90
4828;DHT22;2428;48.732;9.148;2023-05-10T10:24:31;14.80;99.90
4828;DHT22;2428;48.732;9.148;2023-05-10T10:27:08;14.70;99.90
4828;DHT22;2428;48.732;9.148;2023-05-10T10:29:43;14.70;99.90
4828;DHT22;2428;48.732;9.148;2023-05-10T10:35:13;14.90;99.90
4828;DHT22;2428;48.732;9.148;2023-05-10T10:37:47;14.90;99.90
4828;DHT22;2428;48.732;9.148;2023-05-10T10:40:32;15.10;99.90
4828;DHT22;2428;48.732;9.148;2023-05-10T10:42:58;15.40;99.90
4828;DHT22;2428;48.732;9.148;2023-05-10T10:45:25;15.70;99.90
4828;DHT22;2428;48.732;9.148;2023-05-10T10:48:20;15.70;99.90
4828;DHT22;2428;48.732;9.148;2023-05-10T10:50:45;15.70;99.90
4828;DHT22;2428;48.732;9.148;2023-05-10T10:53:14;15.80;99.90
4828;DHT22;2428;48.732;9.148;2023-05-10T10:55:47;15.90;99.90
4828;DHT22;2428;48.732;9.148;2023-05-10T10:58:32;15.50;99.90
4828;DHT22;2428;48.732;9.148;2023-05-10T11:01:17;15.20;99.90
4828;DHT22;2428;48.732;9.148;2023-05-10T11:06:31;14.70;99.90
4828;DHT22;2428;48.732;9.148;2023-05-10T11:08:57;14.60;99.90
4828;DHT22;2428;48.732;9.148;2023-05-10T11:11:23;14.40;99.90
4828;DHT22;2428;48.732;9.148;2023-05-10T11:13:49;14.50;99.90
4828;DHT22;2428;48.732;9.148;2023-05-10T11:16:25;14.40;99.90
4828;DHT22;2428;48.732;9.148;2023-05-10T11:19:04;14.40;99.90
4828;DHT22;2428;48.732;9.148;2023-05-10T11:21:31;14.40;99.90
4828;DHT22;2428;48.732;9.148;2023-05-10T11:23:59;14.50;99.90
4828;DHT22;2428;48.732;9.148;2023-05-10T11:26:30;14.50;99.90
4828;DHT22;2428;48.732;9.148;2023-05-10T11:28:56;14.30;99.90
4828;DHT22;2428;48.732;9.148;2023-05-10T11:31:22;14.40;99.90
4828;DHT22;2428;48.732;9.148;2023-05-10T11:33:50;14.40;99.90
4828;DHT22;2428;48.732;9.148;2023-05-10T11:36:35;14.50;99.90
4828;DHT22;2428;48.732;9.148;2023-05-10T11:39:02;14.20;99.90
4828;DHT22;2428;48.732;9.148;2023-05-10T11:41:30;14.20;99.90
4828;DHT22;2428;48.732;9.148;2023-05-10T11:43:56;14.00;99.90
4828;DHT22;2428;48.732;9.148;2023-05-10T11:46:24;13.90;99.90
4828;DHT22;2428;48.732;9.148;2023-05-10T11:48:55;14.00;99.90
4828;DHT22;2428;48.732;9.148;2023-05-10T11:51:25;14.00;99.90
4828;DHT22;2428;48.732;9.148;2023-05-10T11:53:53;14.10;99.90
4828;DHT22;2428;48.732;9.148;2023-05-10T11:56:19;14.00;99.90
4828;DHT22;2428;48.732;9.148;2023-05-10T11:58:55;14.00;99.90
4828;DHT22;2428;48.732;9.148;2023-05-10T12:01:21;13.90;99.90
4828;DHT22;2428;48.732;9.148;2023-05-10T12:03:48;13.80;99.90
4828;DHT22;2428;48.732;9.148;2023-05-10T12:06:14;14.00;99.90
4828;DHT22;2428;48.732;9.148;2023-05-10T12:08:45;14.20;99.90
4828;DHT22;2428;48.732;9.148;2023-05-10T12:11:12;14.50;99.90
4828;DHT22;2428;48.732;9.148;2023-05-10T12:13:40;14.50;99.90
4828;DHT22;2428;48.732;9.148;2023-05-10T12:18:40;14.60;99.90
4828;DHT22;2428;48.732;9.148;2023-05-10T12:21:06;14.70;99.90
4828;DHT22;2428;48.732;9.148;2023-05-10T12:23:32;14.80;99.90
4828;DHT22;2428;48.732;9.148;2023-05-10T12:26:03;14.90;99.90
4828;DHT22;2428;48.732;9.148;2023-05-10T12:28:32;14.90;99.90
4828;DHT22;2428;48.732;9.148;2023-05-10T12:30:59;15.00;99.90
4828;DHT22;2428;48.732;9.148;2023-05-10T12:33:25;14.90;99.90
4828;DHT22;2428;48.732;9.148;2023-05-10T12:35:52;15.00;99.90
4828;DHT22;2428;48.732;9.148;2023-05-10T12:40:50;15.10;99.90
4828;DHT22;2428;48.732;9.148;2023-05-10T12:43:16;15.00;99.90
4828;DHT22;2428;48.732;9.148;2023-05-10T12:45:41;14.90;99.90
4828;DHT22;2428;48.732;9.148;2023-05-10T12:48:07;15.00;99.90
4828;DHT22;2428;48.732;9.148;2023-05-10T12:50:33;14.80;99.90
4828;DHT22;2428;48.732;9.148;2023-05-10T12:52:58;14.70;99.90
4828;DHT22;2428;48.732;9.148;2023-05-10T12:55:24;14.60;99.90
4828;DHT22;2428;48.732;9.148;2023-05-10T12:57:49;14.50;99.90
4828;DHT22;2428;48.732;9.148;2023-05-10T13:00:15;14.60;99.90
4828;DHT22;2428;48.732;9.148;2023-05-10T13:02:41;14.50;99.90
4828;DHT22;2428;48.732;9.148;2023-05-10T13:05:07;14.50;99.90
4828;DHT22;2428;48.732;9.148;2023-05-10T13:07:32;14.60;99.90
4828;DHT22;2428;48.732;9.148;2023-05-10T13:09:58;14.70;99.90
4828;DHT22;2428;48.732;9.148;2023-05-10T13:12:23;14.70;99.90
4828;DHT22;2428;48.732;9.148;2023-05-10T13:14:49;14.90;99.90
4828;DHT22;2428;48.732;9.148;2023-05-10T13:17:15;15.00;99.90
4828;DHT22;2428;48.732;9.148;2023-05-10T13:19:40;15.20;99.90
4828;DHT22;2428;48.732;9.148;2023-05-10T13:22:06;15.30;99.90
4828;DHT22;2428;48.732;9.148;2023-05-10T13:24:31;15.40;99.90
4828;DHT22;2428;48.732;9.148;2023-05-10T13:26:57;15.50;99.90
4828;DHT22;2428;48.732;9.148;2023-05-10T13:29:23;15.50;99.90
4828;DHT22;2428;48.732;9.148;2023-05-10T13:31:48;15.60;99.90
4828;DHT22;2428;48.732;9.148;2023-05-10T13:34:14;15.70;99.90
4828;DHT22;2428;48.732;9.148;2023-05-10T13:36:40;15.80;99.90
4828;DHT22;2428;48.732;9.148;2023-05-10T13:39:05;15.80;99.90
4828;DHT22;2428;48.732;9.148;2023-05-10T13:41:31;15.80;99.90
4828;DHT22;2428;48.732;9.148;2023-05-10T13:43:57;15.80;99.90
4828;DHT22;2428;48.732;9.148;2023-05-10T13:46:22;15.50;99.90
4828;DHT22;2428;48.732;9.148;2023-05-10T13:48:48;15.40;99.90
4828;DHT22;2428;48.732;9.148;2023-05-10T13:51:13;15.40;99.90
4828;DHT22;2428;48.732;9.148;2023-05-10T13:53:39;15.30;99.90
4828;DHT22;2428;48.732;9.148;2023-05-10T13:56:05;15.50;99.90
4828;DHT22;2428;48.732;9.148;2023-05-10T13:58:30;15.70;99.90
4828;DHT22;2428;48.732;9.148;2023-05-10T14:00:56;15.70;99.90
4828;DHT22;2428;48.732;9.148;2023-05-10T14:03:22;15.90;99.90
4828;DHT22;2428;48.732;9.148;2023-05-10T14:05:47;16.00;99.90
4828;DHT22;2428;48.732;9.148;2023-05-10T14:08:13;15.80;99.90
4828;DHT22;2428;48.732;9.148;2023-05-10T14:10:39;15.80;99.90
4828;DHT22;2428;48.732;9.148;2023-05-10T14:13:05;15.90;99.90
4828;DHT22;2428;48.732;9.148;2023-05-10T14:15:31;15.90;99.90
4828;DHT22;2428;48.732;9.148;2023-05-10T14:17:57;15.90;99.90
4828;DHT22;2428;48.732;9.148;2023-05-10T14:20:22;15.80;99.90
4828;DHT22;2428;48.732;9.148;2023-05-10T14:22:48;15.70;99.90
4828;DHT22;2428;48.732;9.148;2023-05-10T14:25:14;15.80;99.90
4828;DHT22;2428;48.732;9.148;2023-05-10T14:27:40;15.80;99.90
4828;DHT22;2428;48.732;9.148;2023-05-10T14:30:06;15.70;99.90
4828;DHT22;2428;48.732;9.148;2023-05-10T14:32:32;15.70;99.90
4828;DHT22;2428;48.732;9.148;2023-05-10T14:34:57;15.50;99.90
4828;DHT22;2428;48.732;9.148;2023-05-10T14:37:23;15.30;99.90
4828;DHT22;2428;48.732;9.148;2023-05-10T14:39:48;15.40;99.90
4828;DHT22;2428;48.732;9.148;2023-05-10T14:42:14;15.50;99.90
4828;DHT22;2428;48.732;9.148;2023-05-10T14:44:39;15.50;99.90
4828;DHT22;2428;48.732;9.148;2023-05-10T14:47:05;15.50;99.90
4828;DHT22;2428;48.732;9.148;2023-05-10T14:49:31;15.40;99.90
4828;DHT22;2428;48.732;9.148;2023-05-10T14:51:56;15.30;99.90
4828;DHT22;2428;48.732;9.148;2023-05-10T14:54:22;15.20;99.90
4828;DHT22;2428;48.732;9.148;2023-05-10T14:56:47;15.30;99.90
4828;DHT22;2428;48.732;9.148;2023-05-10T14:59:15;15.30;99.90
4828;DHT22;2428;48.732;9.148;2023-05-10T15:01:41;15.40;99.90
4828;DHT22;2428;48.732;9.148;2023-05-10T15:04:07;15.50;99.90
4828;DHT22;2428;48.732;9.148;2023-05-10T15:06:34;15.60;99.90
4828;DHT22;2428;48.732;9.148;2023-05-10T15:09:00;15.70;99.90
4828;DHT22;2428;48.732;9.148;2023-05-10T15:11:26;15.60;99.90
4828;DHT22;2428;48.732;9.148;2023-05-10T15:13:52;15.50;99.90
4828;DHT22;2428;48.732;9.148;2023-05-10T15:16:17;15.40;99.90
4828;DHT22;2428;48.732;9.148;2023-05-10T15:18:43;15.40;99.90
4828;DHT22;2428;48.732;9.148;2023-05-10T15:21:09;15.50;99.90
4828;DHT22;2428;48.732;9.148;2023-05-10T15:23:34;15.30;99.90
4828;DHT22;2428;48.732;9.148;2023-05-10T15:26:00;15.20;99.90
4828;DHT22;2428;48.732;9.148;2023-05-10T15:28:26;15.30;99.90
4828;DHT22;2428;48.732;9.148;2023-05-10T15:30:52;15.50;99.90
4828;DHT22;2428;48.732;9.148;2023-05-10T15:33:17;15.70;99.90
4828;DHT22;2428;48.732;9.148;2023-05-10T15:35:43;15.80;99.90
4828;DHT22;2428;48.732;9.148;2023-05-10T15:38:09;15.70;99.90
4828;DHT22;2428;48.732;9.148;2023-05-10T15:40:35;15.60;99.90
4828;DHT22;2428;48.732;9.148;2023-05-10T15:43:01;15.60;99.90
4828;DHT22;2428;48.732;9.148;2023-05-10T15:45:26;15.70;99.90
4828;DHT22;2428;48.732;9.148;2023-05-10T15:47:52;15.70;99.90
4828;DHT22;2428;48.732;9.148;2023-05-10T15:50:18;15.70;99.90
4828;DHT22;2428;48.732;9.148;2023-05-10T15:52:43;15.60;99.90
4828;DHT22;2428;48.732;9.148;2023-05-10T15:55:09;15.70;99.90
4828;DHT22;2428;48.732;9.148;2023-05-10T15:57:39;15.70;99.90
4828;DHT22;2428;48.732;9.148;2023-05-10T16:00:07;15.70;99.90
4828;DHT22;2428;48.732;9.148;2023-05-10T16:02:33;15.70;99.90
4828;DHT22;2428;48.732;9.148;2023-05-10T16:04:59;15.70;99.90
4828;DHT22;2428;48.732;9.148;2023-05-10T16:07:24;15.70;99.90
4828;DHT22;2428;48.732;9.148;2023-05-10T16:09:50;15.80;99.90
4828;DHT22;2428;48.732;9.148;2023-05-10T16:12:16;15.70;99.90
4828;DHT22;2428;48.732;9.148;2023-05-10T16:14:41;15.60;99.90
4828;DHT22;2428;48.732;9.148;2023-05-10T16:17:07;15.60;99.90
4828;DHT22;2428;48.732;9.148;2023-05-10T16:19:33;15.50;99.90
4828;DHT22;2428;48.732;9.148;2023-05-10T16:21:58;15.50;99.90
4828;DHT22;2428;48.732;9.148;2023-05-10T16:24:24;15.50;99.90
4828;DHT22;2428;48.732;9.148;2023-05-10T16:26:50;15.40;99.90
4828;DHT22;2428;48.732;9.148;2023-05-10T16:29:16;15.50;99.90
4828;DHT22;2428;48.732;9.148;2023-05-10T16:31:41;15.40;99.90
4828;DHT22;2428;48.732;9.148;2023-05-10T16:34:07;15.50;99.90
4828;DHT22;2428;48.732;9.148;2023-05-10T16:36:33;15.50;99.90
4828;DHT22;2428;48.732;9.148;2023-05-10T16:38:58;15.50;99.90